Flight Track Log - Related Links

Times and Time Zones

All times are in EDT time to prevent confusion due to time zone crossing. See the UAL4853 flight status page for this flight to view local times or setup timezone preferences in your user account.

Time Position Orientation Groundspeed Altitude Reporting Facility
EDT Latitude Longitude Course Direction KTS MPH feet Rate Location/Type
Thu 08:30:30 PM 41.4172 -81.8375 83° East 153 176 1,500  Level Cleveland Center
Thu 08:31:06 PM 41.4197 -81.8097 83° East 129 148 2,100 1,052 Climbing Cleveland Center
Thu 08:32:07 PM 41.3994 -81.7678 123° Southeast 149 171 3,200 1,115 Climbing Cleveland Center
Thu 08:32:59 PM 41.3769 -81.7233 124° Southeast 177 204 4,200 1,018 Climbing Cleveland Center
Thu 08:33:59 PM 41.3564 -81.6786 121° Southeast 171 197 5,100 900 Climbing Cleveland Center
Thu 08:34:59 PM 41.3258 -81.6228 126° Southeast 181 208 6,000 950 Climbing Cleveland Center
Thu 08:35:59 PM 41.2928 -81.5586 124° Southeast 186 214 7,000 1,050 Climbing Cleveland Center
Thu 08:36:59 PM 41.2622 -81.5003 125° Southeast 191 220 8,100 1,000 Climbing Cleveland Center
Thu 08:37:59 PM 41.2292 -81.4361 124° Southeast 196 226 9,000 950 Climbing Cleveland Center
Thu 08:38:59 PM 41.1983 -81.3806 126° Southeast 196 226 10,000 850 Climbing Cleveland Center
Thu 08:39:59 PM 41.1675 -81.3167 123° Southeast 196 226 10,700 750 Climbing Cleveland Center
Thu 08:40:59 PM 41.1367 -81.2558 124° Southeast 201 231 11,500 850 Climbing Cleveland Center
Thu 08:41:59 PM 41.1100 -81.1922 119° Southeast 201 231 12,400 850 Climbing Cleveland Center
Thu 08:42:59 PM 41.0978 -81.1175 102° East 201 231 13,200 750 Climbing Cleveland Center
Thu 08:43:59 PM 41.0856 -81.0431 102° East 201 231 13,900 750 Climbing Cleveland Center
Thu 08:44:59 PM 41.0733 -80.9686 102° East 207 238 14,700 750 Climbing Cleveland Center
Thu 08:45:59 PM 41.0611 -80.8969 103° East 202 232 15,400 600 Climbing Cleveland Center
Thu 08:46:59 PM 41.0467 -80.8225 104° East 202 232 15,900 550 Climbing Cleveland Center
Thu 08:47:59 PM 41.0342 -80.7511 103° East 202 232 16,500 650 Climbing Cleveland Center
Thu 08:48:59 PM 41.0219 -80.6739 102° East 202 232 17,200 600 Climbing Cleveland Center
Thu 08:49:59 PM 41.0053 -80.5997 107° East 202 232 17,700 400 Climbing Cleveland Center
Thu 08:50:59 PM 40.9928 -80.5225 102° East 202 232 18,000 400 Climbing Cleveland Center
Thu 08:51:59 PM 40.9803 -80.4483 103° East 202 232 18,500 550 Climbing Cleveland Center
Thu 08:52:59 PM 40.9656 -80.3714 104° East 202 232 19,100 550 Climbing Cleveland Center
Thu 08:53:59 PM 40.9506 -80.2944 104° East 202 232 19,600 500 Climbing Cleveland Center
Thu 08:54:59 PM 40.9358 -80.2175 104° East 202 232 20,100 450 Climbing Cleveland Center
Thu 08:55:59 PM 40.9211 -80.1406 104° East 207 238 20,500 350 Climbing Cleveland Center
Thu 08:56:59 PM 40.9061 -80.0611 104° East 207 238 20,800 250 Climbing Cleveland Center
Thu 08:57:59 PM 40.8911 -79.9817 104° East 213 245 21,000 100 Climbing Cleveland Center
Thu 08:58:59 PM 40.8761 -79.8939 103° East 225 259 21,000  Level Cleveland Center
Thu 08:59:59 PM 40.8589 -79.8033 104° East 236 272 21,000  Level Cleveland Center
Thu 09:00:59 PM 40.8414 -79.7131 104° East 247 284 21,000  Level Cleveland Center
Thu 09:01:59 PM 40.8242 -79.6228 104° East 252 290 21,000  Level Cleveland Center
Thu 09:02:59 PM 40.8067 -79.5297 104° East 252 290 21,000  Level Cleveland Center
Thu 09:03:59 PM 40.7933 -79.4614 104° East 252 290 21,000  Level Cleveland Center
Thu 09:04:59 PM 40.7736 -79.3603 104° East 252 290 21,000  Level Cleveland Center
Thu 09:05:59 PM 40.7581 -79.2700 103° East 252 290 21,000  Level Cleveland Center
Thu 09:06:59 PM 40.7403 -79.1772 104° East 252 290 21,000  Level Cleveland Center
Thu 09:07:59 PM 40.7225 -79.0872 105° East 258 297 21,000  Level Cleveland Center
Thu 09:08:59 PM 40.7044 -78.9972 105° East 258 297 21,000  Level Cleveland Center
Thu 09:09:59 PM 40.6822 -78.8992 107° East 258 297 21,000  Level Cleveland Center
Thu 09:10:59 PM 40.6622 -78.8094 106° East 258 297 21,000 -250 Level Cleveland Center
Thu 09:11:59 PM 40.6439 -78.7169 105° East 258 297 20,500 -750 Descending Cleveland Center
Thu 09:12:59 PM 40.6236 -78.6161 105° East 263 303 19,500 -1,000 Descending Cleveland Center
Thu 09:13:59 PM 40.6008 -78.5103 106° East 280 322 18,500 -850 Descending Cleveland Center
Thu 09:14:59 PM 40.5822 -78.4042 103° East 286 329 17,800 -1,000 Descending Cleveland Center
Thu 09:15:35 PM 40.5692 -78.3425 106° East 291 335 16,900 -1,516 Descending New York Center
Thu 09:16:34 PM 40.5486 -78.2392 105° East 313 360 15,400 -1,525 Descending New York Center
Thu 09:17:33 PM 40.5278 -78.1386 105° East 302 348 13,900 -1,500 Descending New York Center
Thu 09:18:34 PM 40.5089 -78.0408 104° East 284 327 12,400 -1,240 Descending New York Center
Thu 09:19:34 PM 40.4897 -77.9433 104° East 279 321 11,400 -694 Descending New York Center
Thu 09:20:35 PM 40.4681 -77.8511 107° East 273 314 11,000 -198 Descending New York Center
Thu 09:21:35 PM 40.4486 -77.7617 106° East 267 307 11,000  Level New York Center
Thu 09:22:33 PM 40.4308 -77.6697 104° East 262 302 11,000  Level New York Center
Thu 09:23:33 PM 40.4128 -77.5864 106° East 246 283 11,000  Level New York Center
Thu 09:24:34 PM 40.3964 -77.5083 105° East 246 283 11,000 -393 Level New York Center
Thu 09:25:35 PM 40.3750 -77.4108 106° East 246 283 10,200 -1,190 Descending New York Center
Thu 09:26:35 PM 40.3569 -77.3219 105° East 251 289 8,600 -1,563 Descending New York Center
Thu 09:27:34 PM 40.3367 -77.2356 107° East 246 283 7,100 -1,613 Descending New York Center
Thu 09:28:34 PM 40.3206 -77.1497 104° East 246 283 5,400 -1,350 Descending New York Center
Thu 09:29:34 PM 40.3061 -77.0692 103° East 239 275 4,400 -900 Descending New York Center
Thu 09:30:34 PM 40.2828 -76.9992 114° Southeast 220 253 3,600 -744 Descending New York Center
Thu 09:31:35 PM 40.2550 -76.9286 117° Southeast 212 244 2,900 -454 Descending New York Center
Thu 09:32:33 PM 40.2333 -76.8669 115° Southeast 212 244 2,700 3,076 Descending New York Center
Thu 09:33:34 PM 40.2056 -76.7964 117° Southeast 212 244 9,000 3,098 Climbing New York Center
Thu 09:34:35 PM 40.1778 -76.7261 117° Southeast 212 244 9,000  Level New York Center
Thu 09:35:36 PM 40.1503 -76.6558 117° Southeast 212 244 9,000  Level New York Center
Thu 09:36:33 PM 40.1447 -76.6419 118° Southeast 212 244 9,000  Level New York Center
Thu 09:37:35 PM 40.1447 -76.6419 303° West 212 244 9,000  Level New York Center
Thu 09:40:00 PM 40.1677 -76.7134 299° West  Level FlightAware Approximate
Thu 09:47:00 PM 40.1833 -76.7500 299° West  Level FlightAware Approximate
Thu 09:48:00 PM 40.1932 -76.7626 299° West  Level Estimated
Thu 09:49:00 PM 40.1932 -76.7626 299° West  Level Estimated
Thu 09:50:00 PM 40.1932 -76.7626 299° West  Level Estimated
Thu 09:51:00 PM 40.1932 -76.7626 299° West  Level Estimated
Thu 09:52:00 PM 40.1932 -76.7626 299° West  Level Estimated
Thu 09:53:00 PM 40.1932 -76.7626 299° West  Level Estimated

Login

Don't have an account? Register now (free) for customized features, flight alerts, and more!